createdAt,value
2023-05-25T00:01:01.286Z,13.63
2023-05-25T00:03:31.735Z,13.66
2023-05-25T00:06:01.543Z,13.67
2023-05-25T00:08:30.174Z,13.64
2023-05-25T00:10:59.834Z,13.64
2023-05-25T00:13:27.892Z,13.59
2023-05-25T00:15:56.023Z,13.68
2023-05-25T00:18:25.008Z,13.59
2023-05-25T00:20:54.308Z,13.60
2023-05-25T00:23:22.515Z,13.67
2023-05-25T00:25:52.013Z,13.69
2023-05-25T00:28:21.443Z,13.65
2023-05-25T00:30:50.292Z,13.73
2023-05-25T00:33:18.673Z,13.76
2023-05-25T00:35:47.047Z,13.78
2023-05-25T00:38:18.582Z,13.81
2023-05-25T00:40:46.810Z,13.79
2023-05-25T00:43:15.184Z,13.78
2023-05-25T00:45:44.747Z,13.61
2023-05-25T00:48:13.901Z,13.62
2023-05-25T00:50:43.495Z,13.60
2023-05-25T00:53:12.977Z,13.63
2023-05-25T00:55:54.609Z,13.58
2023-05-25T00:58:25.941Z,13.59
2023-05-25T01:00:56.456Z,13.65
2023-05-25T01:03:27.874Z,13.70
2023-05-25T01:05:58.511Z,13.55
2023-05-25T01:08:27.006Z,13.60
2023-05-25T01:10:56.132Z,13.63
2023-05-25T01:13:28.789Z,13.68
2023-05-25T01:16:00.283Z,13.65
2023-05-25T01:18:28.443Z,13.68
2023-05-25T01:21:13.286Z,13.69
2023-05-25T01:23:44.535Z,13.70
2023-05-25T01:26:15.178Z,13.74
2023-05-25T01:28:51.361Z,13.72
2023-05-25T01:31:22.382Z,13.69
2023-05-25T01:33:52.129Z,13.68
2023-05-25T01:36:21.747Z,13.72
2023-05-25T01:38:50.530Z,13.68
2023-05-25T01:41:18.573Z,13.74
2023-05-25T01:43:46.975Z,13.71
2023-05-25T01:46:21.110Z,13.73
2023-05-25T01:48:54.364Z,13.68
2023-05-25T01:51:29.425Z,13.70
2023-05-25T01:54:01.753Z,13.60
2023-05-25T01:56:30.486Z,13.61
2023-05-25T01:58:59.818Z,13.65
2023-05-25T02:01:28.912Z,13.70
2023-05-25T02:03:58.081Z,13.64
2023-05-25T02:06:27.533Z,13.62
2023-05-25T02:08:55.638Z,13.65
2023-05-25T02:11:23.695Z,13.68
2023-05-25T02:13:51.831Z,13.68
2023-05-25T02:16:19.883Z,13.73
2023-05-25T02:18:47.996Z,13.72
2023-05-25T02:21:17.470Z,13.75
2023-05-25T02:23:47.839Z,13.79
2023-05-25T02:26:15.999Z,13.82
2023-05-25T02:28:44.828Z,13.86
2023-05-25T02:31:12.963Z,13.88
2023-05-25T02:33:41.173Z,13.86
2023-05-25T02:36:09.894Z,13.93
2023-05-25T02:38:37.998Z,13.88
2023-05-25T02:41:07.749Z,13.90
2023-05-25T02:43:35.954Z,13.92
2023-05-25T02:46:04.089Z,13.88
2023-05-25T02:48:32.207Z,13.92
2023-05-25T02:51:00.383Z,13.86
2023-05-25T02:53:28.471Z,13.85
2023-05-25T02:55:56.676Z,13.85
2023-05-25T02:58:28.881Z,13.92
2023-05-25T03:01:18.296Z,13.87
2023-05-25T03:03:52.588Z,13.83
2023-05-25T03:06:23.050Z,13.89
2023-05-25T03:08:55.562Z,13.93
2023-05-25T03:11:23.661Z,13.94
2023-05-25T03:13:53.711Z,13.89
2023-05-25T03:16:24.057Z,13.87
2023-05-25T03:18:52.227Z,13.86
2023-05-25T03:21:22.459Z,13.89
2023-05-25T03:23:56.744Z,13.92
2023-05-25T03:26:25.961Z,13.97
2023-05-25T03:28:56.387Z,13.98
2023-05-25T03:31:24.845Z,13.98
2023-05-25T03:33:53.454Z,14.01
2023-05-25T03:36:23.359Z,14.01
2023-05-25T03:38:51.443Z,13.95
2023-05-25T03:41:20.145Z,13.98
2023-05-25T03:43:51.262Z,13.96
2023-05-25T03:46:20.884Z,14.02
2023-05-25T03:48:49.052Z,14.01
2023-05-25T03:51:17.497Z,13.98
2023-05-25T03:53:46.733Z,13.99
2023-05-25T03:56:14.798Z,14.02
2023-05-25T03:58:42.835Z,13.92
2023-05-25T04:01:12.527Z,13.89
2023-05-25T04:03:42.124Z,13.87
2023-05-25T04:06:10.406Z,13.84
2023-05-25T04:08:41.086Z,13.86
2023-05-25T04:11:09.263Z,13.88
2023-05-25T04:13:40.146Z,13.89
2023-05-25T04:16:10.324Z,13.93
2023-05-25T04:18:38.634Z,13.97
2023-05-25T04:21:08.227Z,13.94
2023-05-25T04:23:36.640Z,13.95
2023-05-25T04:26:10.256Z,13.92
2023-05-25T04:28:41.049Z,13.84
2023-05-25T04:31:14.666Z,13.86
2023-05-25T04:33:49.367Z,13.86
2023-05-25T04:36:32.664Z,13.94
2023-05-25T04:39:04.547Z,13.95
2023-05-25T04:41:35.053Z,13.93
2023-05-25T04:44:09.590Z,13.97
2023-05-25T04:46:44.722Z,13.96
2023-05-25T04:49:19.814Z,14.04
2023-05-25T04:51:49.271Z,14.06
2023-05-25T04:54:17.518Z,14.01
2023-05-25T04:56:45.692Z,14.06
2023-05-25T04:59:14.049Z,14.10
2023-05-25T05:01:42.251Z,14.04
2023-05-25T05:04:13.427Z,14.04
2023-05-25T05:06:41.599Z,14.11
2023-05-25T05:09:16.073Z,14.02
2023-05-25T05:11:46.106Z,14.13
2023-05-25T05:14:14.631Z,14.13
2023-05-25T05:16:44.843Z,14.08
2023-05-25T05:19:13.094Z,14.16
2023-05-25T05:21:42.193Z,14.27
2023-05-25T05:24:10.554Z,14.28
2023-05-25T05:26:56.194Z,14.24
2023-05-25T05:29:29.656Z,14.23
2023-05-25T05:31:58.832Z,14.29
2023-05-25T05:34:27.163Z,14.35
2023-05-25T05:36:58.546Z,14.19
2023-05-25T05:39:28.662Z,14.22
2023-05-25T05:41:58.347Z,14.32
2023-05-25T05:44:28.961Z,14.29
2023-05-25T05:47:01.241Z,14.34
2023-05-25T05:49:30.186Z,14.44
2023-05-25T05:51:59.476Z,14.52
2023-05-25T05:54:28.622Z,14.46
2023-05-25T05:57:01.559Z,14.49
2023-05-25T05:59:29.746Z,14.57
2023-05-25T06:01:57.943Z,14.69
2023-05-25T06:04:28.893Z,14.67
2023-05-25T06:06:58.514Z,14.75
2023-05-25T06:09:27.337Z,14.77
2023-05-25T06:11:59.039Z,14.70
2023-05-25T06:14:28.965Z,14.81
2023-05-25T06:17:00.488Z,14.93
2023-05-25T06:19:28.827Z,15.09
2023-05-25T06:21:57.067Z,14.97
2023-05-25T06:24:25.113Z,14.98
2023-05-25T06:26:53.287Z,14.83
2023-05-25T06:29:21.693Z,14.88
2023-05-25T06:31:51.162Z,14.87
2023-05-25T06:34:19.837Z,14.78
2023-05-25T06:36:47.933Z,14.86
2023-05-25T06:39:16.428Z,14.85
2023-05-25T06:41:44.826Z,14.76
2023-05-25T06:44:15.766Z,14.76
2023-05-25T06:46:48.916Z,14.83
2023-05-25T06:49:18.787Z,14.90
2023-05-25T06:51:46.819Z,14.97
2023-05-25T06:54:15.025Z,15.04
2023-05-25T06:56:43.139Z,15.24
2023-05-25T06:59:11.293Z,15.31
2023-05-25T07:01:39.467Z,15.32
2023-05-25T07:04:07.566Z,15.40
2023-05-25T07:06:37.064Z,15.46
2023-05-25T07:09:05.223Z,15.48
2023-05-25T07:11:33.312Z,15.39
2023-05-25T07:14:01.376Z,15.38
2023-05-25T07:16:29.593Z,15.54
2023-05-25T07:18:59.409Z,15.64
2023-05-25T07:21:28.328Z,15.63
2023-05-25T07:23:57.759Z,15.77
2023-05-25T07:26:25.861Z,15.56
2023-05-25T07:28:53.959Z,15.51
2023-05-25T07:31:22.462Z,15.57
2023-05-25T07:33:50.863Z,15.67
2023-05-25T07:36:19.036Z,15.66
2023-05-25T07:38:47.825Z,15.67
2023-05-25T07:41:17.268Z,15.68
2023-05-25T07:43:45.557Z,15.72
2023-05-25T07:46:13.638Z,15.76
2023-05-25T07:48:41.700Z,15.90
2023-05-25T07:51:09.925Z,15.92
2023-05-25T07:53:38.018Z,15.93
2023-05-25T07:56:08.508Z,15.91
2023-05-25T07:58:39.915Z,16.16
2023-05-25T08:01:07.970Z,16.28
2023-05-25T08:03:49.168Z,16.37
2023-05-25T08:06:18.382Z,16.41
2023-05-25T08:08:47.143Z,16.38
2023-05-25T08:11:16.839Z,16.42
2023-05-25T08:13:46.332Z,16.41
2023-05-25T08:16:15.349Z,16.33
2023-05-25T08:18:46.752Z,16.45
2023-05-25T08:21:17.204Z,16.45
2023-05-25T08:23:45.322Z,16.40
2023-05-25T08:28:44.389Z,16.74
2023-05-25T08:31:13.833Z,16.84
2023-05-25T08:33:42.138Z,16.83
2023-05-25T08:36:10.311Z,16.87
2023-05-25T08:38:38.398Z,16.92
2023-05-25T08:41:07.796Z,16.87
2023-05-25T08:43:36.429Z,16.79
2023-05-25T08:46:06.188Z,16.90
2023-05-25T08:48:41.935Z,17.05
2023-05-25T08:51:12.294Z,17.16
2023-05-25T08:53:41.852Z,17.26
2023-05-25T08:56:12.797Z,17.36
2023-05-25T08:58:45.520Z,17.39
2023-05-25T09:01:16.199Z,17.50
2023-05-25T09:03:46.321Z,17.43
2023-05-25T09:06:15.143Z,17.49
2023-05-25T09:08:43.625Z,17.65
2023-05-25T09:11:16.550Z,17.82
2023-05-25T09:13:45.714Z,17.67
2023-05-25T09:16:13.748Z,17.72
2023-05-25T09:18:41.833Z,17.52
2023-05-25T09:21:11.292Z,17.68
2023-05-25T09:23:39.425Z,17.70
2023-05-25T09:26:07.595Z,17.84
2023-05-25T09:28:36.133Z,17.82
2023-05-25T09:31:04.206Z,18.07
2023-05-25T09:33:32.341Z,18.06
2023-05-25T09:36:00.894Z,18.01
2023-05-25T09:38:31.675Z,18.03
2023-05-25T09:41:00.008Z,18.05
2023-05-25T09:43:40.743Z,18.15
2023-05-25T09:46:12.999Z,18.26
2023-05-25T09:48:41.419Z,18.30
2023-05-25T09:51:10.130Z,18.42
2023-05-25T09:53:39.584Z,18.45
2023-05-25T09:56:07.902Z,18.62
2023-05-25T09:58:37.117Z,18.81
2023-05-25T10:01:05.633Z,18.89
2023-05-25T10:03:33.779Z,18.95
2023-05-25T10:06:02.383Z,18.94
2023-05-25T10:08:31.161Z,18.97
2023-05-25T10:11:00.844Z,19.07
2023-05-25T10:13:30.804Z,19.07
2023-05-25T10:15:59.377Z,19.09
2023-05-25T10:18:29.794Z,19.26
2023-05-25T10:21:02.781Z,19.39
2023-05-25T10:23:35.675Z,19.52
2023-05-25T10:26:08.728Z,19.50
2023-05-25T10:28:38.465Z,19.68
2023-05-25T10:31:06.923Z,19.89
2023-05-25T10:33:35.058Z,19.90
2023-05-25T10:36:10.650Z,20.07
2023-05-25T10:38:40.816Z,20.08
2023-05-25T10:41:12.609Z,20.08
2023-05-25T10:43:41.227Z,20.14
2023-05-25T10:46:09.692Z,20.12
2023-05-25T10:48:38.530Z,20.13
2023-05-25T10:51:10.070Z,20.07
2023-05-25T10:53:40.063Z,20.01
2023-05-25T10:56:10.735Z,20.06
2023-05-25T10:58:43.791Z,20.25
2023-05-25T11:01:13.237Z,20.26
2023-05-25T11:03:56.677Z,20.38
2023-05-25T11:06:41.310Z,20.25
2023-05-25T11:09:24.781Z,20.42
2023-05-25T11:12:03.786Z,20.55
2023-05-25T11:14:37.792Z,20.58
2023-05-25T11:17:07.901Z,20.63
2023-05-25T11:19:49.592Z,20.74
2023-05-25T11:22:21.261Z,20.62
2023-05-25T11:24:49.885Z,20.68
2023-05-25T11:27:24.620Z,20.91
2023-05-25T11:29:55.087Z,21.20
2023-05-25T11:32:23.709Z,21.30
2023-05-25T11:34:54.050Z,21.29
2023-05-25T11:37:25.195Z,21.29
2023-05-25T11:39:54.395Z,21.29
2023-05-25T11:42:23.870Z,21.14
2023-05-25T11:44:52.258Z,21.13
2023-05-25T11:47:25.365Z,21.18
2023-05-25T11:49:56.739Z,21.12
2023-05-25T11:52:24.879Z,21.34
2023-05-25T11:54:53.379Z,21.46
2023-05-25T11:57:24.812Z,21.44
2023-05-25T11:59:54.685Z,21.42
2023-05-25T12:02:25.030Z,21.25
2023-05-25T12:04:57.095Z,21.11
2023-05-25T12:07:26.185Z,21.10
2023-05-25T12:10:05.867Z,21.14
2023-05-25T12:12:39.546Z,21.15
2023-05-25T12:15:09.107Z,21.17
2023-05-25T12:17:41.498Z,21.26
2023-05-25T12:20:11.166Z,21.20
2023-05-25T12:22:39.749Z,21.15
2023-05-25T12:25:10.285Z,21.25
2023-05-25T12:27:38.582Z,21.33
2023-05-25T12:30:10.623Z,21.29
2023-05-25T12:35:46.895Z,21.45
2023-05-25T12:38:16.330Z,21.42
2023-05-25T12:40:45.146Z,21.46
2023-05-25T12:43:14.329Z,21.60
2023-05-25T12:45:43.113Z,21.72
2023-05-25T12:48:12.098Z,21.78
2023-05-25T12:50:58.139Z,21.95
2023-05-25T12:53:27.250Z,21.97
2023-05-25T12:56:02.641Z,21.87
2023-05-25T12:58:30.759Z,21.86
2023-05-25T13:00:58.906Z,21.85
2023-05-25T13:03:27.123Z,22.01
2023-05-25T13:06:01.231Z,22.21
2023-05-25T13:08:29.366Z,22.42
2023-05-25T13:10:57.728Z,22.51
2023-05-25T13:13:25.826Z,22.44
2023-05-25T13:15:54.010Z,22.71
2023-05-25T13:18:22.101Z,22.82
2023-05-25T13:20:52.497Z,22.69
2023-05-25T13:23:23.758Z,22.29
2023-05-25T13:25:51.867Z,22.71
2023-05-25T13:28:20.128Z,22.72
2023-05-25T13:30:48.309Z,23.03
2023-05-25T13:33:16.527Z,22.99
2023-05-25T13:35:58.840Z,23.08
2023-05-25T13:38:29.641Z,23.45
2023-05-25T13:40:58.083Z,23.42
2023-05-25T13:43:26.215Z,23.36
2023-05-25T13:45:54.411Z,23.38
2023-05-25T13:48:22.721Z,23.43
2023-05-25T13:50:50.824Z,23.49
2023-05-25T13:53:18.884Z,23.48
2023-05-25T13:55:48.805Z,23.67
2023-05-25T13:58:16.883Z,23.55
2023-05-25T14:00:45.244Z,23.41
2023-05-25T14:03:14.172Z,23.74
2023-05-25T14:05:42.707Z,23.96
2023-05-25T14:08:12.659Z,24.12
2023-05-25T14:10:40.990Z,24.22
2023-05-25T14:13:10.390Z,24.66
2023-05-25T14:15:38.536Z,24.98
2023-05-25T14:18:06.866Z,25.18
2023-05-25T14:20:37.292Z,25.06
2023-05-25T14:23:05.514Z,25.01
2023-05-25T14:25:33.591Z,25.17
2023-05-25T14:28:01.644Z,25.21
2023-05-25T14:30:31.043Z,25.54
2023-05-25T14:33:00.493Z,25.67
2023-05-25T14:35:28.604Z,25.89
2023-05-25T14:37:56.724Z,25.65
2023-05-25T14:40:24.785Z,25.96
2023-05-25T14:42:55.450Z,26.11
2023-05-25T14:45:23.758Z,26.15
2023-05-25T14:48:00.929Z,26.35
2023-05-25T14:50:42.015Z,26.46
2023-05-25T14:53:10.051Z,26.70
2023-05-25T14:55:38.159Z,27.03
2023-05-25T14:58:06.221Z,27.06
2023-05-25T15:00:34.296Z,27.03
2023-05-25T15:03:03.959Z,27.13
2023-05-25T15:05:32.099Z,27.25
2023-05-25T15:08:00.228Z,27.34
2023-05-25T15:10:29.663Z,27.25
2023-05-25T15:12:57.702Z,27.10
2023-05-25T15:15:25.760Z,27.16
2023-05-25T15:17:54.846Z,27.35
2023-05-25T15:20:24.439Z,27.33
2023-05-25T15:22:53.915Z,27.13
2023-05-25T15:25:35.146Z,27.30
2023-05-25T15:28:04.004Z,27.30
2023-05-25T15:30:34.130Z,27.70
2023-05-25T15:33:02.367Z,27.73
2023-05-25T15:35:32.442Z,27.75
2023-05-25T15:38:01.217Z,27.85
2023-05-25T15:40:29.543Z,27.94
2023-05-25T15:42:57.628Z,28.19
2023-05-25T15:45:26.354Z,28.37
2023-05-25T15:47:54.586Z,28.25
2023-05-25T15:50:22.791Z,28.45
2023-05-25T15:52:52.245Z,28.33
2023-05-25T15:55:20.691Z,28.46
2023-05-25T15:57:48.814Z,28.81
2023-05-25T16:00:17.562Z,28.85
2023-05-25T16:02:45.730Z,28.64
2023-05-25T16:05:14.106Z,28.70
2023-05-25T16:07:42.260Z,28.49
2023-05-25T16:10:11.970Z,28.13
2023-05-25T16:12:40.047Z,28.25
2023-05-25T16:15:08.991Z,28.10
2023-05-25T16:17:37.338Z,28.10
2023-05-25T16:20:07.199Z,28.18
2023-05-25T16:22:35.331Z,28.06
2023-05-25T16:25:03.401Z,27.71
2023-05-25T16:27:32.837Z,27.60
2023-05-25T16:30:00.955Z,27.23
2023-05-25T16:32:29.447Z,26.60
2023-05-25T16:34:57.534Z,26.35
2023-05-25T16:37:25.973Z,26.34
2023-05-25T16:39:54.010Z,26.00
2023-05-25T16:42:24.945Z,25.79
2023-05-25T16:44:54.396Z,25.76
2023-05-25T16:47:22.784Z,25.84
2023-05-25T16:49:50.853Z,25.60
2023-05-25T16:52:18.905Z,25.57
2023-05-25T16:54:46.989Z,25.58
2023-05-25T16:57:15.041Z,25.37
2023-05-25T16:59:43.090Z,25.27
2023-05-25T17:02:12.517Z,25.09
2023-05-25T17:04:40.538Z,24.51
2023-05-25T17:07:08.583Z,24.34
2023-05-25T17:09:36.754Z,24.25
2023-05-25T17:12:05.122Z,24.16
2023-05-25T17:14:33.168Z,24.03
2023-05-25T17:17:01.235Z,24.04
2023-05-25T17:19:30.759Z,23.77
2023-05-25T17:21:58.827Z,23.80
2023-05-25T17:24:28.338Z,23.75
2023-05-25T17:26:56.501Z,23.55
2023-05-25T17:29:24.558Z,23.54
2023-05-25T17:31:52.816Z,23.40
2023-05-25T17:34:21.182Z,23.17
2023-05-25T17:36:50.675Z,23.23
2023-05-25T17:39:18.709Z,23.12
2023-05-25T17:41:47.299Z,23.15
2023-05-25T17:44:15.356Z,23.14
2023-05-25T17:46:43.367Z,23.01
2023-05-25T17:49:11.482Z,22.85
2023-05-25T17:51:39.686Z,22.91
2023-05-25T17:54:09.111Z,22.86
2023-05-25T17:56:37.186Z,22.77
2023-05-25T17:59:05.228Z,22.60
2023-05-25T18:01:35.198Z,22.43
2023-05-25T18:04:03.563Z,22.66
2023-05-25T18:06:31.740Z,22.59
2023-05-25T18:08:59.941Z,22.57
2023-05-25T18:13:58.140Z,22.60
2023-05-25T18:16:26.255Z,22.52
2023-05-25T18:18:54.337Z,22.47
2023-05-25T18:21:22.390Z,22.50
2023-05-25T18:23:50.418Z,22.49
2023-05-25T18:26:18.455Z,22.42
2023-05-25T18:28:48.245Z,22.48
2023-05-25T18:31:16.472Z,22.52
2023-05-25T18:33:44.538Z,22.50
2023-05-25T18:36:12.817Z,22.42
2023-05-25T18:38:40.918Z,22.41
2023-05-25T18:41:09.035Z,22.40
2023-05-25T18:43:37.143Z,22.35
2023-05-25T18:46:06.617Z,22.27
2023-05-25T18:48:34.929Z,22.14
2023-05-25T18:51:03.324Z,22.03
2023-05-25T18:53:31.342Z,21.88
2023-05-25T18:55:59.431Z,21.90
2023-05-25T18:58:27.457Z,21.78
2023-05-25T19:00:55.488Z,21.74
2023-05-25T19:03:25.056Z,21.58
2023-05-25T19:05:53.256Z,21.65
2023-05-25T19:08:21.305Z,21.59
2023-05-25T19:10:49.402Z,21.53
2023-05-25T19:13:17.492Z,21.52
2023-05-25T19:15:46.007Z,21.50
2023-05-25T19:18:14.370Z,21.45
2023-05-25T19:20:43.943Z,21.40
2023-05-25T19:23:12.155Z,21.29
2023-05-25T19:25:40.203Z,21.25
2023-05-25T19:28:08.259Z,21.12
2023-05-25T19:30:36.291Z,21.08
2023-05-25T19:33:04.476Z,20.99
2023-05-25T19:35:32.574Z,20.96
2023-05-25T19:38:02.357Z,20.64
2023-05-25T19:40:30.532Z,20.61
2023-05-25T19:42:58.588Z,20.65
2023-05-25T19:45:26.704Z,20.65
2023-05-25T19:47:55.355Z,20.57
2023-05-25T19:50:23.524Z,20.53
2023-05-25T19:52:51.616Z,20.48
2023-05-25T19:55:21.088Z,20.43
2023-05-25T19:57:49.124Z,20.38
2023-05-25T20:00:25.466Z,20.35
2023-05-25T20:02:55.279Z,20.30
2023-05-25T20:05:23.647Z,20.28
2023-05-25T20:07:52.582Z,20.23
2023-05-25T20:10:22.152Z,20.15
2023-05-25T20:12:50.287Z,20.09
2023-05-25T20:15:18.417Z,20.04
2023-05-25T20:17:46.531Z,19.98
2023-05-25T20:20:14.800Z,19.91
2023-05-25T20:22:42.935Z,19.85
2023-05-25T20:25:11.083Z,19.80
2023-05-25T20:27:40.497Z,19.75
2023-05-25T20:30:09.447Z,19.70
2023-05-25T20:32:37.582Z,19.66
2023-05-25T20:35:06.129Z,19.61
2023-05-25T20:37:34.162Z,19.51
2023-05-25T20:40:02.287Z,19.48
2023-05-25T20:42:30.357Z,19.40
2023-05-25T20:44:59.890Z,19.38
2023-05-25T20:47:28.583Z,19.34
2023-05-25T20:49:56.680Z,19.29
2023-05-25T20:52:24.861Z,19.25
2023-05-25T20:54:52.889Z,19.23
2023-05-25T20:57:20.922Z,19.20
2023-05-25T20:59:51.592Z,19.15
2023-05-25T21:02:21.061Z,19.07
2023-05-25T21:04:49.059Z,18.65
2023-05-25T21:07:18.806Z,18.73
2023-05-25T21:09:47.093Z,18.79
2023-05-25T21:12:15.208Z,18.80
2023-05-25T21:14:43.290Z,18.77
2023-05-25T21:17:11.634Z,18.77
2023-05-25T21:19:41.063Z,18.73
2023-05-25T21:22:09.410Z,18.70
2023-05-25T21:24:37.440Z,18.66
2023-05-25T21:27:06.287Z,18.59
2023-05-25T21:29:34.330Z,18.55
2023-05-25T21:32:02.557Z,18.52
2023-05-25T21:34:30.581Z,18.47
2023-05-25T21:36:59.986Z,18.44
2023-05-25T21:39:28.143Z,18.40
2023-05-25T21:41:56.221Z,18.34
2023-05-25T21:44:24.405Z,18.31
2023-05-25T21:46:52.461Z,18.28
2023-05-25T21:49:20.555Z,18.23
2023-05-25T21:51:48.546Z,18.16
2023-05-25T21:54:18.176Z,18.11
2023-05-25T21:56:46.361Z,18.09
2023-05-25T21:59:14.418Z,18.05
2023-05-25T22:01:42.537Z,18.01
2023-05-25T22:04:10.707Z,17.92
2023-05-25T22:06:38.752Z,17.86
2023-05-25T22:09:06.846Z,17.59
2023-05-25T22:11:37.281Z,17.55
2023-05-25T22:14:05.912Z,17.50
2023-05-25T22:16:34.063Z,17.53
2023-05-25T22:19:02.183Z,17.50
2023-05-25T22:21:30.211Z,17.46
2023-05-25T22:23:58.293Z,17.43
2023-05-25T22:26:27.394Z,17.40
2023-05-25T22:28:56.811Z,17.38
2023-05-25T22:31:25.786Z,17.35
2023-05-25T22:33:53.959Z,17.31
2023-05-25T22:36:22.135Z,17.21
2023-05-25T22:38:50.187Z,17.20
2023-05-25T22:41:18.214Z,17.09
2023-05-25T22:43:46.626Z,17.09
2023-05-25T22:46:16.169Z,17.05
2023-05-25T22:48:44.419Z,17.01
2023-05-25T22:51:12.768Z,16.98
2023-05-25T22:53:40.872Z,16.94
2023-05-25T22:56:09.017Z,16.89
2023-05-25T22:58:37.089Z,16.81
2023-05-25T23:01:05.271Z,16.74
2023-05-25T23:03:34.883Z,16.70
2023-05-25T23:06:03.089Z,16.70
2023-05-25T23:08:31.202Z,16.64
2023-05-25T23:10:59.258Z,16.59
2023-05-25T23:13:27.856Z,16.59
2023-05-25T23:15:56.102Z,16.56
2023-05-25T23:18:24.222Z,16.52
2023-05-25T23:20:55.239Z,16.49
2023-05-25T23:23:23.292Z,16.43
2023-05-25T23:25:51.455Z,16.40
2023-05-25T23:28:19.557Z,16.38
2023-05-25T23:30:47.634Z,16.32
2023-05-25T23:33:15.684Z,16.30
2023-05-25T23:35:43.948Z,16.29
2023-05-25T23:38:13.852Z,16.27
2023-05-25T23:40:41.908Z,16.26
2023-05-25T23:43:09.928Z,16.20
2023-05-25T23:45:37.981Z,16.16
2023-05-25T23:48:06.305Z,16.10
2023-05-25T23:50:34.970Z,16.06
2023-05-25T23:53:03.338Z,16.07
2023-05-25T23:55:32.723Z,16.07
2023-05-25T23:58:00.796Z,16.03
